createdAt,value
2023-08-15T00:01:35.077Z,98194.84
2023-08-15T00:04:01.955Z,98192.06
2023-08-15T00:06:28.761Z,98186.97
2023-08-15T00:11:28.994Z,98196.31
2023-08-15T00:13:58.050Z,98185.34
2023-08-15T00:16:25.453Z,98181.44
2023-08-15T00:21:25.018Z,98182.69
2023-08-15T00:23:51.803Z,98179.31
2023-08-15T00:26:18.551Z,98182.41
2023-08-15T00:31:16.607Z,98185.19
2023-08-15T00:33:43.356Z,98185.78
2023-08-15T00:36:10.078Z,98188.69
2023-08-15T00:38:36.939Z,98182.03
2023-08-15T00:41:03.661Z,98180.69
2023-08-15T00:43:30.373Z,98174.97
2023-08-15T00:45:57.195Z,98171.22
2023-08-15T00:48:24.342Z,98174.34
2023-08-15T00:50:51.762Z,98184.56
2023-08-15T00:53:20.726Z,98176.47
2023-08-15T00:55:47.837Z,98177.69
2023-08-15T00:58:16.321Z,98181.59
2023-08-15T01:00:43.880Z,98180.19
2023-08-15T01:03:11.991Z,98167.78
2023-08-15T01:05:40.530Z,98158.59
2023-08-15T01:08:08.346Z,98163.69
2023-08-15T01:10:35.274Z,98165.84
2023-08-15T01:13:06.795Z,98163.31
2023-08-15T01:15:39.439Z,98170.75
2023-08-15T01:18:46.745Z,98170.75
2023-08-15T01:21:23.257Z,98166.09
2023-08-15T01:23:50.867Z,98164.88
2023-08-15T01:26:17.559Z,98161.56
2023-08-15T01:28:44.355Z,98154.91
2023-08-15T01:31:29.174Z,98150.09
2023-08-15T01:34:18.210Z,98148.22
2023-08-15T01:36:54.130Z,98153.47
2023-08-15T01:39:29.835Z,98147.69
2023-08-15T01:42:01.246Z,98145.81
2023-08-15T01:44:29.176Z,98154.50
2023-08-15T01:46:57.115Z,98147.69
2023-08-15T01:49:23.929Z,98149.38
2023-08-15T01:51:51.716Z,98150.94
2023-08-15T01:54:18.536Z,98156.50
2023-08-15T01:56:45.325Z,98162.16
2023-08-15T02:01:49.116Z,98154.28
2023-08-15T02:04:15.911Z,98145.16
2023-08-15T02:06:42.701Z,98154.94
2023-08-15T02:09:09.687Z,98158.06
2023-08-15T02:11:36.609Z,98151.59
2023-08-15T02:14:03.383Z,98145.91
2023-08-15T02:16:30.184Z,98150.63
2023-08-15T02:18:56.925Z,98149.72
2023-08-15T02:21:23.651Z,98148.16
2023-08-15T02:23:50.375Z,98145.63
2023-08-15T02:26:17.294Z,98147.84
2023-08-15T02:28:44.020Z,98146.19
2023-08-15T02:31:12.353Z,98142.72
2023-08-15T02:33:39.111Z,98145.41
2023-08-15T02:36:07.519Z,98145.75
2023-08-15T02:38:35.671Z,98149.72
2023-08-15T02:41:02.973Z,98154.28
2023-08-15T02:43:29.744Z,98151.19
2023-08-15T02:45:56.526Z,98147.94
2023-08-15T02:48:23.260Z,98147.28
2023-08-15T02:50:50.015Z,98144.06
2023-08-15T02:53:16.801Z,98143.53
2023-08-15T02:55:43.528Z,98145.06
2023-08-15T02:58:10.254Z,98136.41
2023-08-15T03:00:38.766Z,98134.09
2023-08-15T03:03:05.671Z,98132.22
2023-08-15T03:05:32.495Z,98137.63
2023-08-15T03:07:59.251Z,98140.41
2023-08-15T03:10:25.971Z,98143.75
2023-08-15T03:12:52.689Z,98137.75
2023-08-15T03:15:19.408Z,98144.19
2023-08-15T03:17:46.155Z,98142.09
2023-08-15T03:20:13.529Z,98131.63
2023-08-15T03:22:43.365Z,98127.09
2023-08-15T03:25:10.443Z,98128.75
2023-08-15T03:27:37.186Z,98131.19
2023-08-15T03:30:04.309Z,98128.41
2023-08-15T03:32:31.120Z,98137.53
2023-08-15T03:34:58.345Z,98142.00
2023-08-15T03:37:25.136Z,98145.66
2023-08-15T03:39:51.908Z,98150.44
2023-08-15T03:42:18.703Z,98152.31
2023-08-15T03:44:45.734Z,98157.31
2023-08-15T03:47:12.503Z,98159.31
2023-08-15T03:49:39.402Z,98165.91
2023-08-15T03:52:06.235Z,98179.69
2023-08-15T03:54:32.941Z,98173.09
2023-08-15T03:56:59.710Z,98175.09
2023-08-15T03:59:26.412Z,98175.25
2023-08-15T04:01:53.250Z,98174.59
2023-08-15T04:04:20.118Z,98182.59
2023-08-15T04:06:46.851Z,98174.03
2023-08-15T04:09:13.604Z,98170.69
2023-08-15T04:11:40.364Z,98177.59
2023-08-15T04:14:07.137Z,98188.91
2023-08-15T04:16:33.948Z,98193.91
2023-08-15T04:19:00.809Z,98199.38
2023-08-15T04:21:27.526Z,98187.22
2023-08-15T04:23:54.213Z,98191.94
2023-08-15T04:26:20.958Z,98203.03
2023-08-15T04:33:58.928Z,98198.00
2023-08-15T04:36:25.807Z,98208.47
2023-08-15T04:38:52.516Z,98228.25
2023-08-15T04:41:19.314Z,98238.81
2023-08-15T04:43:46.120Z,98238.03
2023-08-15T04:46:12.884Z,98229.38
2023-08-15T04:48:39.639Z,98227.44
2023-08-15T04:51:06.377Z,98231.47
2023-08-15T04:53:33.518Z,98237.56
2023-08-15T04:56:00.298Z,98249.13
2023-08-15T04:58:27.087Z,98249.91
2023-08-15T05:00:54.338Z,98235.13
2023-08-15T05:03:21.081Z,98245.91
2023-08-15T05:05:48.759Z,98240.69
2023-08-15T05:08:15.511Z,98237.91
2023-08-15T05:10:42.253Z,98237.72
2023-08-15T05:13:09.045Z,98238.47
2023-08-15T05:15:35.878Z,98242.81
2023-08-15T05:18:02.872Z,98236.47
2023-08-15T05:20:29.775Z,98239.69
2023-08-15T05:22:56.664Z,98242.47
2023-08-15T05:25:23.488Z,98245.81
2023-08-15T05:27:51.745Z,98237.06
2023-08-15T05:30:18.689Z,98245.81
2023-08-15T05:32:45.423Z,98242.16
2023-08-15T05:35:13.153Z,98251.38
2023-08-15T05:37:40.082Z,98249.16
2023-08-15T05:40:07.383Z,98253.69
2023-08-15T05:42:34.091Z,98247.16
2023-08-15T05:45:00.941Z,98250.69
2023-08-15T05:47:27.714Z,98264.59
2023-08-15T05:49:54.415Z,98265.94
2023-08-15T05:52:21.112Z,98269.03
2023-08-15T05:54:47.883Z,98270.13
2023-08-15T05:57:15.429Z,98266.22
2023-08-15T05:59:42.152Z,98277.13
2023-08-15T06:02:08.939Z,98280.75
2023-08-15T06:04:35.758Z,98284.78
2023-08-15T06:07:04.037Z,98291.00
2023-08-15T06:09:31.244Z,98291.31
2023-08-15T06:11:58.102Z,98289.53
2023-08-15T06:14:24.957Z,98304.66
2023-08-15T06:16:52.280Z,98304.44
2023-08-15T06:19:19.879Z,98306.44
2023-08-15T06:21:46.669Z,98303.75
2023-08-15T06:24:14.202Z,98313.13
2023-08-15T06:26:41.303Z,98309.66
2023-08-15T06:29:08.762Z,98319.00
2023-08-15T06:31:37.220Z,98318.31
2023-08-15T06:34:05.090Z,98331.00
2023-08-15T06:36:32.731Z,98323.56
2023-08-15T06:38:59.439Z,98328.88
2023-08-15T06:41:26.165Z,98325.47
2023-08-15T06:43:53.252Z,98321.16
2023-08-15T06:46:20.254Z,98332.50
2023-08-15T06:48:47.125Z,98327.38
2023-08-15T06:51:13.866Z,98320.56
2023-08-15T06:53:43.022Z,98326.28
2023-08-15T06:56:11.371Z,98330.94
2023-08-15T06:58:39.064Z,98339.81
2023-08-15T07:01:07.529Z,98349.16
2023-08-15T07:03:35.244Z,98342.84
2023-08-15T07:06:02.581Z,98355.44
2023-08-15T07:08:29.372Z,98349.28
2023-08-15T07:13:28.477Z,98343.97
2023-08-15T07:15:56.910Z,98343.34
2023-08-15T07:18:24.968Z,98350.97
2023-08-15T07:20:52.547Z,98341.38
2023-08-15T07:23:19.800Z,98330.69
2023-08-15T07:25:46.599Z,98336.56
2023-08-15T07:28:13.465Z,98341.34
2023-08-15T07:30:40.529Z,98339.78
2023-08-15T07:33:07.453Z,98339.19
2023-08-15T07:35:34.171Z,98335.34
2023-08-15T07:38:01.972Z,98345.59
2023-08-15T07:40:29.061Z,98354.75
2023-08-15T07:42:56.398Z,98351.50
2023-08-15T07:45:23.847Z,98348.22
2023-08-15T07:47:53.684Z,98348.53
2023-08-15T07:50:24.191Z,98344.47
2023-08-15T07:52:51.821Z,98342.94
2023-08-15T07:55:18.597Z,98353.13
2023-08-15T07:57:46.277Z,98352.47
2023-08-15T08:00:14.471Z,98357.19
2023-08-15T08:02:45.882Z,98342.91
2023-08-15T08:05:14.317Z,98347.88
2023-08-15T08:07:43.159Z,98349.56
2023-08-15T08:10:10.881Z,98347.88
2023-08-15T08:12:37.982Z,98342.47
2023-08-15T08:15:05.525Z,98338.28
2023-08-15T08:17:32.349Z,98335.34
2023-08-15T08:19:59.120Z,98348.72
2023-08-15T08:22:25.924Z,98355.66
2023-08-15T08:24:54.623Z,98359.56
2023-08-15T08:27:22.354Z,98354.56
2023-08-15T08:29:49.334Z,98348.81
2023-08-15T08:32:16.036Z,98345.88
2023-08-15T08:34:42.986Z,98348.44
2023-08-15T08:37:09.733Z,98349.25
2023-08-15T08:39:36.470Z,98344.09
2023-08-15T08:42:05.040Z,98347.09
2023-08-15T08:44:33.315Z,98351.16
2023-08-15T08:47:01.057Z,98343.72
2023-08-15T08:49:28.879Z,98344.41
2023-08-15T08:51:58.070Z,98348.31
2023-08-15T08:54:41.191Z,98349.56
2023-08-15T08:57:12.362Z,98355.47
2023-08-15T08:59:43.735Z,98363.81
2023-08-15T09:02:12.964Z,98370.44
2023-08-15T09:04:39.774Z,98362.50
2023-08-15T09:07:06.519Z,98358.28
2023-08-15T09:09:33.465Z,98357.63
2023-08-15T09:12:00.257Z,98362.19
2023-08-15T09:14:27.061Z,98361.72
2023-08-15T09:16:53.950Z,98360.59
2023-08-15T09:19:20.738Z,98364.84
2023-08-15T09:21:47.472Z,98363.78
2023-08-15T09:24:14.251Z,98363.94
2023-08-15T09:26:41.393Z,98358.28
2023-08-15T09:29:08.174Z,98359.81
2023-08-15T09:31:35.952Z,98372.88
2023-08-15T09:34:10.079Z,98371.84
2023-08-15T09:36:36.920Z,98374.66
2023-08-15T09:39:07.796Z,98372.47
2023-08-15T09:41:35.252Z,98372.75
2023-08-15T09:44:02.038Z,98362.69
2023-08-15T09:46:28.864Z,98367.13
2023-08-15T09:48:56.098Z,98365.53
2023-08-15T09:51:25.106Z,98366.44
2023-08-15T09:53:53.809Z,98364.56
2023-08-15T09:56:21.826Z,98365.53
2023-08-15T09:58:48.752Z,98360.34
2023-08-15T10:01:20.454Z,98368.28
2023-08-15T10:03:49.049Z,98367.34
2023-08-15T10:06:16.301Z,98366.06
2023-08-15T10:08:44.805Z,98354.06
2023-08-15T10:11:12.109Z,98356.78
2023-08-15T10:13:39.850Z,98353.13
2023-08-15T10:16:14.013Z,98358.03
2023-08-15T10:18:53.324Z,98358.81
2023-08-15T10:23:55.064Z,98365.81
2023-08-15T10:26:22.482Z,98372.78
2023-08-15T10:28:50.129Z,98372.16
2023-08-15T10:31:35.482Z,98383.19
2023-08-15T10:36:43.367Z,98383.53
2023-08-15T10:39:10.180Z,98384.81
2023-08-15T10:41:37.899Z,98379.88
2023-08-15T10:44:09.219Z,98386.44
2023-08-15T10:46:37.640Z,98387.19
2023-08-15T10:49:08.769Z,98395.72
2023-08-15T10:51:37.847Z,98388.38
2023-08-15T10:54:07.816Z,98387.91
2023-08-15T10:56:37.130Z,98388.47
2023-08-15T10:59:15.567Z,98396.03
2023-08-15T11:01:44.458Z,98391.38
2023-08-15T11:04:15.635Z,98392.38
2023-08-15T11:06:43.472Z,98385.84
2023-08-15T11:09:12.455Z,98386.06
2023-08-15T11:11:39.771Z,98389.81
2023-08-15T11:14:15.588Z,98390.97
2023-08-15T11:16:42.408Z,98391.19
2023-08-15T11:19:09.580Z,98397.59
2023-08-15T11:21:36.590Z,98388.16
2023-08-15T11:24:03.421Z,98383.50
2023-08-15T11:26:30.271Z,98384.53
2023-08-15T11:28:57.041Z,98380.69
2023-08-15T11:31:24.692Z,98369.81
2023-08-15T11:33:53.147Z,98388.81
2023-08-15T11:36:21.589Z,98390.59
2023-08-15T11:38:48.510Z,98381.06
2023-08-15T11:41:15.932Z,98379.88
2023-08-15T11:46:16.739Z,98391.22
2023-08-15T11:48:46.770Z,98388.81
2023-08-15T11:51:20.656Z,98393.31
2023-08-15T11:53:54.201Z,98394.28
2023-08-15T11:56:21.701Z,98405.03
2023-08-15T11:58:48.711Z,98390.19
2023-08-15T12:01:15.764Z,98391.00
2023-08-15T12:03:42.848Z,98382.03
2023-08-15T12:06:16.111Z,98382.59
2023-08-15T12:08:46.571Z,98378.72
2023-08-15T12:13:51.428Z,98388.50
2023-08-15T12:16:21.117Z,98392.88
2023-08-15T12:18:47.965Z,98397.25
2023-08-15T12:21:15.742Z,98392.09
2023-08-15T12:23:42.966Z,98381.34
2023-08-15T12:26:09.711Z,98379.31
2023-08-15T12:28:36.907Z,98378.56
2023-08-15T12:31:03.841Z,98397.56
2023-08-15T12:36:07.085Z,98374.44
2023-08-15T12:38:33.877Z,98381.06
2023-08-15T12:41:00.584Z,98379.28
2023-08-15T12:43:27.429Z,98374.16
2023-08-15T12:48:25.493Z,98380.34
2023-08-15T12:50:52.259Z,98383.16
2023-08-15T12:53:19.109Z,98381.13
2023-08-15T12:55:46.746Z,98379.31
2023-08-15T12:58:13.540Z,98384.47
2023-08-15T13:00:42.904Z,98372.13
2023-08-15T13:03:10.870Z,98378.81
2023-08-15T13:05:37.764Z,98377.53
2023-08-15T13:08:04.984Z,98371.84
2023-08-15T13:10:31.788Z,98368.22
2023-08-15T13:12:58.571Z,98370.53
2023-08-15T13:15:25.857Z,98365.13
2023-08-15T13:17:52.867Z,98373.84
2023-08-15T13:20:19.670Z,98358.22
2023-08-15T13:22:46.393Z,98361.00
2023-08-15T13:25:13.124Z,98369.72
2023-08-15T13:27:39.975Z,98359.72
2023-08-15T13:30:07.527Z,98358.09
2023-08-15T13:32:34.277Z,98359.41
2023-08-15T13:35:01.220Z,98364.06
2023-08-15T13:37:27.920Z,98355.63
2023-08-15T13:39:54.948Z,98353.31
2023-08-15T13:42:35.961Z,98357.41
2023-08-15T13:45:06.726Z,98350.50
2023-08-15T13:47:35.916Z,98339.44
2023-08-15T13:50:02.939Z,98348.69
2023-08-15T13:55:01.261Z,98339.97
2023-08-15T13:57:28.194Z,98327.78
2023-08-15T13:59:56.119Z,98325.72
2023-08-15T14:02:22.909Z,98320.13
2023-08-15T14:04:49.786Z,98310.84
2023-08-15T14:07:16.662Z,98319.81
2023-08-15T14:09:43.457Z,98329.06
2023-08-15T14:12:10.223Z,98321.56
2023-08-15T14:14:38.324Z,98325.94
2023-08-15T14:17:07.653Z,98327.47
2023-08-15T14:19:34.405Z,98324.00
2023-08-15T14:22:01.097Z,98333.47
2023-08-15T14:24:27.865Z,98328.31
2023-08-15T14:26:54.607Z,98328.53
2023-08-15T14:29:21.528Z,98332.66
2023-08-15T14:31:48.255Z,98326.91
2023-08-15T14:34:15.760Z,98326.91
2023-08-15T14:36:42.509Z,98333.31
2023-08-15T14:39:09.354Z,98331.19
2023-08-15T14:41:36.264Z,98330.81
2023-08-15T14:46:34.657Z,98326.38
2023-08-15T14:49:01.541Z,98325.22
2023-08-15T14:51:28.254Z,98327.31
2023-08-15T14:53:54.992Z,98322.41
2023-08-15T14:56:22.074Z,98317.25
2023-08-15T14:58:48.851Z,98318.72
2023-08-15T15:01:15.883Z,98317.41
2023-08-15T15:03:42.764Z,98308.88
2023-08-15T15:06:09.728Z,98319.75
2023-08-15T15:08:36.453Z,98311.59
2023-08-15T15:11:06.400Z,98321.84
2023-08-15T15:13:33.225Z,98319.50
2023-08-15T15:16:00.033Z,98327.47
2023-08-15T15:18:27.062Z,98327.38
2023-08-15T15:20:54.164Z,98318.22
2023-08-15T15:23:21.054Z,98315.78
2023-08-15T15:25:49.255Z,98321.91
2023-08-15T15:28:16.024Z,98331.97
2023-08-15T15:30:42.875Z,98332.66
2023-08-15T15:33:09.662Z,98333.09
2023-08-15T15:35:36.481Z,98336.13
2023-08-15T15:38:03.711Z,98337.31
2023-08-15T15:40:30.467Z,98332.97
2023-08-15T15:42:57.201Z,98331.25
2023-08-15T15:45:24.027Z,98334.06
2023-08-15T15:47:50.950Z,98332.63
2023-08-15T15:50:21.232Z,98334.06
2023-08-15T15:52:48.974Z,98343.44
2023-08-15T15:55:20.851Z,98341.78
2023-08-15T15:57:47.862Z,98338.00
2023-08-15T16:00:17.427Z,98337.38
2023-08-15T16:02:44.715Z,98330.97
2023-08-15T16:05:12.515Z,98337.97
2023-08-15T16:07:39.962Z,98333.63
2023-08-15T16:10:07.901Z,98340.59
2023-08-15T16:12:34.844Z,98339.47
2023-08-15T16:15:01.937Z,98338.00
2023-08-15T16:17:28.897Z,98338.63
2023-08-15T16:19:56.895Z,98346.28
2023-08-15T16:22:24.098Z,98351.63
2023-08-15T16:24:51.670Z,98343.47
2023-08-15T16:27:18.452Z,98345.13
2023-08-15T16:29:45.207Z,98350.03
2023-08-15T16:32:14.761Z,98355.66
2023-08-15T16:34:43.477Z,98356.44
2023-08-15T16:37:10.459Z,98361.00
2023-08-15T16:39:37.206Z,98360.59
2023-08-15T16:42:04.098Z,98360.00
2023-08-15T16:44:30.847Z,98369.66
2023-08-15T16:46:57.663Z,98361.94
2023-08-15T16:49:25.431Z,98368.81
2023-08-15T16:51:52.258Z,98366.94
2023-08-15T16:54:19.018Z,98369.72
2023-08-15T16:56:45.875Z,98371.97
2023-08-15T16:59:12.709Z,98374.56
2023-08-15T17:01:40.586Z,98370.06
2023-08-15T17:04:07.497Z,98380.50
2023-08-15T17:06:34.409Z,98375.94
2023-08-15T17:09:01.147Z,98382.47
2023-08-15T17:11:27.950Z,98378.78
2023-08-15T17:13:54.683Z,98387.53
2023-08-15T17:16:21.459Z,98391.91
2023-08-15T17:18:48.223Z,98393.50
2023-08-15T17:21:15.125Z,98401.91
2023-08-15T17:23:41.877Z,98408.09
2023-08-15T17:26:08.701Z,98413.41
2023-08-15T17:28:35.492Z,98405.94
2023-08-15T17:31:02.321Z,98409.22
2023-08-15T17:33:29.045Z,98411.53
2023-08-15T17:35:55.729Z,98411.16
2023-08-15T17:38:22.483Z,98416.13
2023-08-15T17:40:49.207Z,98422.88
2023-08-15T17:43:15.980Z,98419.75
2023-08-15T17:45:42.746Z,98427.06
2023-08-15T17:48:10.121Z,98425.06
2023-08-15T17:50:36.989Z,98428.94
2023-08-15T17:53:03.817Z,98429.41
2023-08-15T17:55:30.594Z,98428.78
2023-08-15T17:57:57.417Z,98441.88
2023-08-15T18:00:24.365Z,98438.94
2023-08-15T18:05:23.381Z,98446.56
2023-08-15T18:07:50.088Z,98436.47
2023-08-15T18:10:17.221Z,98438.50
2023-08-15T18:12:44.214Z,98446.91
2023-08-15T18:15:11.832Z,98442.56
2023-08-15T18:17:38.663Z,98446.63
2023-08-15T18:20:06.173Z,98457.69
2023-08-15T18:22:33.057Z,98452.09
2023-08-15T18:24:59.969Z,98457.06
2023-08-15T18:27:26.725Z,98455.38
2023-08-15T18:29:53.539Z,98462.66
2023-08-15T18:32:20.502Z,98454.75
2023-08-15T18:34:47.684Z,98457.38
2023-08-15T18:37:14.547Z,98466.84
2023-08-15T18:39:41.300Z,98467.31
2023-08-15T18:42:08.052Z,98466.72
2023-08-15T18:44:34.801Z,98473.06
2023-08-15T18:47:03.702Z,98480.66
2023-08-15T18:49:31.374Z,98485.78
2023-08-15T18:51:58.317Z,98484.06
2023-08-15T18:54:25.044Z,98481.72
2023-08-15T18:59:24.486Z,98495.72
2023-08-15T19:01:51.816Z,98492.91
2023-08-15T19:04:18.637Z,98504.81
2023-08-15T19:06:45.375Z,98506.06
2023-08-15T19:09:12.129Z,98512.69
2023-08-15T19:11:38.927Z,98503.72
2023-08-15T19:14:05.689Z,98514.38
2023-08-15T19:16:32.423Z,98516.25
2023-08-15T19:19:04.114Z,98509.41
2023-08-15T19:21:31.669Z,98519.28
2023-08-15T19:23:58.468Z,98520.31
2023-08-15T19:26:25.264Z,98525.06
2023-08-15T19:28:52.110Z,98523.03
2023-08-15T19:31:18.869Z,98529.34
2023-08-15T19:33:45.624Z,98522.31
2023-08-15T19:38:50.085Z,98529.88
2023-08-15T19:41:17.740Z,98535.69
2023-08-15T19:43:44.516Z,98533.16
2023-08-15T19:46:11.651Z,98523.38
2023-08-15T19:48:38.444Z,98527.72
2023-08-15T19:51:05.303Z,98523.78
2023-08-15T19:53:32.174Z,98532.78
2023-08-15T19:55:58.984Z,98534.78
2023-08-15T19:58:25.744Z,98535.38
2023-08-15T20:00:52.579Z,98532.78
2023-08-15T20:03:19.522Z,98530.88
2023-08-15T20:05:46.280Z,98534.78
2023-08-15T20:08:13.353Z,98537.81
2023-08-15T20:10:40.097Z,98539.59
2023-08-15T20:13:07.365Z,98536.41
2023-08-15T20:15:38.622Z,98528.03
2023-08-15T20:18:05.577Z,98530.03
2023-08-15T20:20:32.439Z,98533.69
2023-08-15T20:22:59.203Z,98527.56
2023-08-15T20:25:27.933Z,98533.28
2023-08-15T20:27:54.643Z,98530.66
2023-08-15T20:30:21.455Z,98529.31
2023-08-15T20:32:48.262Z,98533.00
2023-08-15T20:35:15.041Z,98538.69
2023-08-15T20:37:41.849Z,98537.56
2023-08-15T20:40:10.419Z,98536.03
2023-08-15T20:42:37.336Z,98544.50
2023-08-15T20:45:04.743Z,98546.63
2023-08-15T20:47:31.634Z,98540.38
2023-08-15T20:50:01.051Z,98541.16
2023-08-15T20:55:09.144Z,98535.03
2023-08-15T20:57:36.045Z,98533.00
2023-08-15T21:00:02.825Z,98538.56
2023-08-15T21:02:29.641Z,98540.81
2023-08-15T21:04:56.495Z,98547.50
2023-08-15T21:07:23.516Z,98549.97
2023-08-15T21:09:50.602Z,98540.13
2023-08-15T21:12:17.369Z,98543.94
2023-08-15T21:14:44.097Z,98553.16
2023-08-15T21:17:10.817Z,98550.81
2023-08-15T21:19:37.582Z,98559.69
2023-08-15T21:22:04.759Z,98569.63
2023-08-15T21:24:31.500Z,98567.28
2023-08-15T21:26:58.501Z,98569.06
2023-08-15T21:29:25.278Z,98568.88
2023-08-15T21:31:52.072Z,98565.63
2023-08-15T21:34:18.747Z,98568.41
2023-08-15T21:36:45.460Z,98573.63
2023-08-15T21:39:12.294Z,98569.84
2023-08-15T21:41:39.085Z,98565.69
2023-08-15T21:44:05.963Z,98569.88
2023-08-15T21:46:32.798Z,98578.88
2023-08-15T21:48:59.557Z,98574.03
2023-08-15T21:51:26.317Z,98576.91
2023-08-15T21:53:53.034Z,98578.13
2023-08-15T21:56:19.781Z,98570.91
2023-08-15T21:58:46.544Z,98572.94
2023-08-15T22:01:13.401Z,98588.50
2023-08-15T22:03:40.231Z,98589.78
2023-08-15T22:06:07.084Z,98588.31
2023-08-15T22:08:33.821Z,98589.22
2023-08-15T22:11:00.578Z,98590.47
2023-08-15T22:13:27.441Z,98588.47
2023-08-15T22:15:54.207Z,98590.81
2023-08-15T22:18:21.809Z,98586.63
2023-08-15T22:20:49.810Z,98586.03
2023-08-15T22:23:16.726Z,98592.72
2023-08-15T22:25:47.291Z,98583.25
2023-08-15T22:28:14.565Z,98589.06
2023-08-15T22:30:41.485Z,98595.28
2023-08-15T22:33:08.297Z,98583.66
2023-08-15T22:35:42.355Z,98586.63
2023-08-15T22:38:09.932Z,98593.66
2023-08-15T22:40:37.119Z,98592.00
2023-08-15T22:43:05.016Z,98588.28
2023-08-15T22:45:32.145Z,98583.94
2023-08-15T22:47:59.039Z,98593.59
2023-08-15T22:50:25.976Z,98596.38
2023-08-15T22:52:52.802Z,98589.09
2023-08-15T22:55:19.495Z,98592.03
2023-08-15T22:57:46.235Z,98584.94
2023-08-15T23:00:13.736Z,98584.06
2023-08-15T23:02:40.720Z,98576.16
2023-08-15T23:05:07.819Z,98571.38
2023-08-15T23:07:34.620Z,98567.06
2023-08-15T23:10:01.503Z,98553.69
2023-08-15T23:12:28.237Z,98548.75
2023-08-15T23:14:55.028Z,98544.06
2023-08-15T23:17:22.006Z,98559.16
2023-08-15T23:19:49.008Z,98554.72
2023-08-15T23:22:15.778Z,98556.03
2023-08-15T23:24:42.538Z,98545.25
2023-08-15T23:27:09.356Z,98546.03
2023-08-15T23:29:36.110Z,98535.13
2023-08-15T23:32:05.126Z,98543.63
2023-08-15T23:34:32.189Z,98549.09
2023-08-15T23:36:58.910Z,98539.78
2023-08-15T23:39:26.377Z,98541.69
2023-08-15T23:41:53.366Z,98542.91
2023-08-15T23:44:20.194Z,98533.47
2023-08-15T23:46:48.974Z,98537.53
2023-08-15T23:49:16.058Z,98536.66
2023-08-15T23:51:42.808Z,98532.50
2023-08-15T23:54:09.553Z,98526.78
2023-08-15T23:56:36.352Z,98526.59
2023-08-15T23:59:03.093Z,98546.38
